Wetterdaten: Woche 16.01.17 - 22.01.17 (KW3)
Datum Zeit Temp. Aussen Temp. o. S. +5cm Feuchte Auss BlattFeu 1 Luftdruck Regen Sonnenschein Regendauer Solar Windben Empfang
16.01.2017 00:00 0,8 C 1,4 C -0,5 C 97 % 1 lf 1022,4 hPa 0,0 l/m 0,00 h 0,00 h 0 W/m 3,0 km/h (1 Bft) 94,66 %
16.01.2017 01:00 1,0 C 1,5 C -0,1 C 97 % 0 lf 1022,4 hPa 0,0 l/m 0,00 h 0,00 h 0 W/m 4,9 km/h (1 Bft) 96,22 %
16.01.2017 02:00 0,8 C 1,1 C -0,6 C 97 % 0 lf 1022,4 hPa 0,0 l/m 0,00 h 0,00 h 0 W/m 4,8 km/h (1 Bft) 96,80 %
16.01.2017 03:00 0,7 C 1,1 C -0,6 C 97 % 0 lf 1022,6 hPa 0,0 l/m 0,00 h 0,00 h 0 W/m 7,3 km/h (2 Bft) 95,94 %
16.01.2017 04:00 0,7 C 1,1 C -0,6 C 97 % 0 lf 1022,9 hPa 0,0 l/m 0,00 h 0,00 h 0 W/m 5,1 km/h (1 Bft) 94,85 %
16.01.2017 05:00 0,5 C 0,9 C -0,6 C 97 % 0 lf 1023,1 hPa 0,0 l/m 0,00 h 0,00 h 0 W/m 7,6 km/h (2 Bft) 98,29 %
16.01.2017 06:00 0,3 C 0,6 C -0,6 C 97 % 1 lf 1023,4 hPa 0,0 l/m 0,00 h 0,00 h 0 W/m 6,4 km/h (2 Bft) 93,53 %
16.01.2017 07:00 0,1 C 0,6 C -1,1 C 97 % 1 lf 1023,9 hPa 0,0 l/m 0,00 h 0,00 h 0 W/m 8,1 km/h (2 Bft) 96,43 %
16.01.2017 08:00 -0,0 C 0,5 C -1,1 C 97 % 0 lf 1024,5 hPa 0,0 l/m 0,00 h 0,00 h 7 W/m 6,3 km/h (2 Bft) 97,71 %
16.01.2017 09:00 -0,2 C 0,5 C -0,9 C 97 % 0 lf 1025,2 hPa 0,0 l/m 0,00 h 0,00 h 17 W/m 7,6 km/h (2 Bft) 95,44 %
16.01.2017 10:00 -0,1 C 0,8 C -0,5 C 97 % 0 lf 1025,8 hPa 0,0 l/m 0,00 h 0,00 h 43 W/m 9,3 km/h (2 Bft) 94,87 %
16.01.2017 11:00 0,3 C 1,7 C 0,4 C 97 % 0 lf 1026,2 hPa 0,0 l/m 0,00 h 0,00 h 64 W/m 7,6 km/h (2 Bft) 98,00 %
16.01.2017 12:00 0,4 C 1,8 C 0,7 C 96 % 0 lf 1026,3 hPa 0,0 l/m 0,03 h 0,00 h 93 W/m 11,7 km/h (2 Bft) 94,59 %
16.01.2017 13:00 0,8 C 2,8 C 1,1 C 92 % 0 lf 1026,5 hPa 0,0 l/m 0,07 h 0,00 h 116 W/m 10,4 km/h (2 Bft) 96,51 %
16.01.2017 14:00 1,0 C 2,7 C 0,9 C 89 % 0 lf 1026,7 hPa 0,0 l/m 0,00 h 0,00 h 105 W/m 9,8 km/h (2 Bft) 96,13 %
16.01.2017 15:00 0,8 C 1,6 C -0,1 C 88 % 0 lf 1027,1 hPa 0,0 l/m 0,10 h 0,00 h 66 W/m 10,8 km/h (2 Bft) 93,59 %
16.01.2017 16:00 0,2 C -0,1 C -1,6 C 89 % 0 lf 1027,6 hPa 0,0 l/m 0,43 h 0,00 h 28 W/m 8,1 km/h (2 Bft) 97,94 %
16.01.2017 17:00 -0,8 C -2,7 C -3,8 C 89 % 2 lf 1028,1 hPa 0,0 l/m 0,00 h 0,00 h 5 W/m 0,8 km/h (0 Bft) 96,65 %
16.01.2017 18:00 -1,8 C -3,5 C -4,5 C 90 % 11 lf 1028,5 hPa 0,0 l/m 0,00 h 0,00 h 0 W/m 4,1 km/h (1 Bft) 93,60 %
16.01.2017 19:00 -2,3 C -4,0 C -5,1 C 92 % 11 lf 1029,0 hPa 0,0 l/m 0,00 h 0,00 h 0 W/m 2,3 km/h (1 Bft) 95,95 %
16.01.2017 20:00 -2,9 C -4,6 C -5,7 C 92 % 1 lf 1029,8 hPa 0,0 l/m 0,00 h 0,00 h 0 W/m 2,5 km/h (1 Bft) 97,36 %
16.01.2017 21:00 -3,1 C -3,8 C -4,8 C 93 % 1 lf 1030,6 hPa 0,0 l/m 0,00 h 0,00 h 0 W/m 7,2 km/h (2 Bft) 95,94 %
16.01.2017 22:00 -2,9 C -3,7 C -4,9 C 94 % 1 lf 1031,4 hPa 0,0 l/m 0,00 h 0,00 h 0 W/m 7,1 km/h (2 Bft) 95,95 %
16.01.2017 23:00 -3,4 C -4,7 C -6,1 C 94 % 0 lf 1031,9 hPa 0,0 l/m 0,00 h 0,00 h 4 W/m 3,8 km/h (1 Bft) 96,01 %
17.01.2017 00:00 -4,0 C -4,9 C -6,0 C 94 % 0 lf 1032,3 hPa 0,0 l/m 0,00 h 0,00 h 5 W/m 0,7 km/h (0 Bft) 94,58 %
17.01.2017 01:00 -3,8 C -3,6 C -4,6 C 95 % 1 lf 1032,6 hPa 0,0 l/m 0,00 h 0,00 h 0 W/m 6,2 km/h (2 Bft) 95,37 %
17.01.2017 02:00 -3,2 C -3,3 C -4,4 C 95 % 1 lf 1033,0 hPa 0,0 l/m 0,00 h 0,00 h 0 W/m 12,8 km/h (3 Bft) 97,37 %
17.01.2017 03:00 -3,0 C -3,3 C -4,0 C 95 % 1 lf 1033,5 hPa 0,0 l/m 0,00 h 0,00 h 5 W/m 11,1 km/h (2 Bft) 95,73 %
17.01.2017 04:00 -3,1 C -3,2 C -4,3 C 93 % 0 lf 1033,8 hPa 0,0 l/m 0,00 h 0,00 h 5 W/m 16,4 km/h (3 Bft) 94,63 %
17.01.2017 05:00 -3,2 C -2,8 C -4,4 C 90 % 0 lf 1034,1 hPa 0,0 l/m 0,00 h 0,00 h 5 W/m 12,8 km/h (3 Bft) 97,23 %
17.01.2017 06:00 -3,2 C -3,1 C -4,4 C 90 % 0 lf 1034,7 hPa 0,0 l/m 0,00 h 0,00 h 5 W/m 4,7 km/h (1 Bft) 95,30 %
17.01.2017 07:00 -3,4 C -3,4 C -5,1 C 89 % 0 lf 1035,0 hPa 0,0 l/m 0,00 h 0,00 h 5 W/m 6,9 km/h (2 Bft) 95,80 %
17.01.2017 08:00 -4,1 C -4,8 C -6,7 C 88 % 0 lf 1035,9 hPa 0,0 l/m 0,27 h 0,00 h 40 W/m 1,3 km/h (1 Bft) 95,22 %
17.01.2017 09:00 -4,6 C -4,3 C -6,1 C 89 % 0 lf 1036,3 hPa 0,0 l/m 1,00 h 0,00 h 74 W/m 1,5 km/h (1 Bft) 95,37 %
17.01.2017 10:00 -3,7 C -0,6 C -4,2 C 91 % 0 lf 1036,6 hPa 0,0 l/m 1,00 h 0,00 h 173 W/m 6,2 km/h (2 Bft) 95,01 %
17.01.2017 11:00 -1,9 C 9,2 C -2,6 C 88 % 0 lf 1036,9 hPa 0,0 l/m 1,00 h 0,00 h 258 W/m 8,8 km/h (2 Bft) 95,94 %
17.01.2017 12:00 -0,8 C 5,3 C -1,9 C 82 % 0 lf 1037,0 hPa 0,0 l/m 1,00 h 0,00 h 277 W/m 13,1 km/h (3 Bft) 94,00 %
17.01.2017 13:00 -0,3 C 6,0 C -1,2 C 82 % 0 lf 1036,6 hPa 0,0 l/m 1,00 h 0,00 h 268 W/m 12,3 km/h (3 Bft) 95,35 %
17.01.2017 14:00 0,2 C 7,4 C -0,7 C 82 % 0 lf 1036,3 hPa 0,0 l/m 1,00 h 0,00 h 188 W/m 15,1 km/h (3 Bft) 96,51 %
17.01.2017 15:00 0,4 C 1,9 C -1,1 C 82 % 0 lf 1036,5 hPa 0,0 l/m 0,80 h 0,00 h 94 W/m 12,5 km/h (3 Bft) 97,87 %
17.01.2017 16:00 -0,2 C -0,1 C -2,1 C 84 % 0 lf 1036,6 hPa 0,0 l/m 0,47 h 0,00 h 29 W/m 12,3 km/h (3 Bft) 94,52 %
17.01.2017 17:00 -1,3 C -1,9 C -4,0 C 86 % 0 lf 1037,0 hPa 0,0 l/m 0,00 h 0,00 h 5 W/m 11,2 km/h (2 Bft) 94,66 %
17.01.2017 18:00 -2,3 C -3,0 C -5,0 C 88 % 0 lf 1037,2 hPa 0,0 l/m 0,00 h 0,00 h 0 W/m 9,5 km/h (2 Bft) 97,72 %
17.01.2017 19:00 -2,9 C -3,4 C -5,3 C 90 % 0 lf 1037,6 hPa 0,0 l/m 0,00 h 0,00 h 0 W/m 8,4 km/h (2 Bft) 96,51 %
17.01.2017 20:00 -3,3 C -3,9 C -5,7 C 91 % 1 lf 1037,9 hPa 0,0 l/m 0,00 h 0,00 h 0 W/m 6,4 km/h (2 Bft) 95,24 %
17.01.2017 21:00 -3,6 C -3,8 C -5,6 C 92 % 1 lf 1038,1 hPa 0,0 l/m 0,00 h 0,00 h 0 W/m 9,6 km/h (2 Bft) 94,65 %
17.01.2017 22:00 -4,0 C -4,4 C -6,5 C 92 % 1 lf 1038,2 hPa 0,0 l/m 0,00 h 0,00 h 0 W/m 8,5 km/h (2 Bft) 96,51 %
17.01.2017 23:00 -4,3 C -4,6 C -7,0 C 93 % 0 lf 1038,2 hPa 0,0 l/m 0,00 h 0,00 h 0 W/m 5,9 km/h (2 Bft) 96,16 %
18.01.2017 00:00 -4,8 C -4,9 C -7,2 C 93 % 0 lf 1038,2 hPa 0,0 l/m 0,00 h 0,00 h 0 W/m 7,1 km/h (2 Bft) 96,09 %
18.01.2017 01:00 -5,0 C -5,1 C -7,1 C 93 % 0 lf 1038,3 hPa 0,0 l/m 0,00 h 0,00 h 0 W/m 9,1 km/h (2 Bft) 95,80 %
18.01.2017 02:00 -5,1 C -5,9 C -7,6 C 94 % 0 lf 1038,4 hPa 0,0 l/m 0,00 h 0,00 h 5 W/m 3,9 km/h (1 Bft) 93,31 %
18.01.2017 03:00 -5,8 C -7,2 C -8,3 C 94 % 0 lf 1038,3 hPa 0,0 l/m 0,00 h 0,00 h 5 W/m 0,0 km/h (0 Bft) 96,58 %
18.01.2017 04:00 -6,5 C -7,8 C -8,8 C 94 % 0 lf 1038,2 hPa 0,0 l/m 0,00 h 0,00 h 5 W/m 1,1 km/h (1 Bft) 97,13 %
18.01.2017 05:00 -7,0 C -7,7 C -8,9 C 94 % 0 lf 1038,0 hPa 0,0 l/m 0,00 h 0,00 h 0 W/m 3,4 km/h (1 Bft) 95,51 %
18.01.2017 06:00 -7,0 C -7,3 C -8,9 C 94 % 0 lf 1038,2 hPa 0,0 l/m 0,00 h 0,00 h 0 W/m 1,3 km/h (1 Bft) 96,44 %
18.01.2017 07:00 -6,9 C -7,5 C -8,7 C 94 % 0 lf 1038,2 hPa 0,0 l/m 0,00 h 0,00 h 0 W/m 2,9 km/h (1 Bft) 95,09 %
18.01.2017 08:00 -6,7 C -7,1 C -8,6 C 95 % 0 lf 1038,5 hPa 0,0 l/m 0,20 h 0,00 h 15 W/m 0,9 km/h (0 Bft) 96,53 %
18.01.2017 09:00 -6,4 C -5,7 C -7,2 C 95 % 0 lf 1038,9 hPa 0,0 l/m 1,00 h 0,00 h 68 W/m 1,1 km/h (1 Bft) 95,01 %
18.01.2017 10:00 -4,9 C -3,1 C -5,3 C 96 % 1 lf 1039,1 hPa 0,0 l/m 1,00 h 0,00 h 188 W/m 5,7 km/h (1 Bft) 97,86 %
18.01.2017 11:00 -2,9 C 1,7 C -2,5 C 96 % 1 lf 1039,2 hPa 0,0 l/m 1,00 h 0,00 h 249 W/m 9,9 km/h (2 Bft) 95,59 %
18.01.2017 12:00 -2,0 C 1,0 C -1,6 C 93 % 1 lf 1038,8 hPa 0,0 l/m 0,97 h 0,00 h 192 W/m 9,1 km/h (2 Bft) 97,08 %
18.01.2017 13:00 -0,7 C 4,2 C -1,3 C 87 % 0 lf 1038,1 hPa 0,0 l/m 0,80 h 0,00 h 250 W/m 7,8 km/h (2 Bft) 93,36 %
18.01.2017 14:00 -0,3 C 3,1 C -0,7 C 82 % 0 lf 1038,0 hPa 0,0 l/m 1,00 h 0,00 h 154 W/m 8,2 km/h (2 Bft) 93,53 %
18.01.2017 15:00 -0,2 C 1,2 C -1,3 C 80 % 0 lf 1037,9 hPa 0,0 l/m 0,67 h 0,00 h 88 W/m 7,0 km/h (2 Bft) 98,72 %
18.01.2017 16:00 -0,4 C 0,1 C -1,8 C 84 % 0 lf 1037,9 hPa 0,0 l/m 0,73 h 0,00 h 37 W/m 7,4 km/h (2 Bft) 94,45 %
18.01.2017 17:00 -1,0 C -1,5 C -2,8 C 87 % 0 lf 1037,7 hPa 0,0 l/m 0,00 h 0,00 h 6 W/m 6,5 km/h (2 Bft) 94,54 %
18.01.2017 18:00 -1,4 C -1,9 C -3,4 C 89 % 0 lf 1037,4 hPa 0,0 l/m 0,00 h 0,00 h 0 W/m 5,0 km/h (1 Bft) 97,01 %
18.01.2017 19:00 -1,8 C -2,0 C -3,6 C 90 % 0 lf 1037,3 hPa 0,0 l/m 0,00 h 0,00 h 0 W/m 6,8 km/h (2 Bft) 96,37 %
18.01.2017 20:00 -2,4 C -3,6 C -5,6 C 90 % 1 lf 1037,3 hPa 0,0 l/m 0,00 h 0,00 h 0 W/m 2,2 km/h (1 Bft) 95,66 %
18.01.2017 21:00 -3,2 C -3,9 C -6,1 C 90 % 1 lf 1037,2 hPa 0,0 l/m 0,00 h 0,00 h 0 W/m 4,7 km/h (1 Bft) 95,44 %
18.01.2017 22:00 -3,8 C -4,5 C -6,7 C 90 % 1 lf 1037,2 hPa 0,0 l/m 0,00 h 0,00 h 4 W/m 3,2 km/h (1 Bft) 95,62 %
18.01.2017 23:00 -4,3 C -5,4 C -7,2 C 90 % 1 lf 1037,1 hPa 0,0 l/m 0,00 h 0,00 h 5 W/m 1,0 km/h (0 Bft) 95,66 %
19.01.2017 00:00 -4,9 C -5,9 C -7,7 C 91 % 1 lf 1036,9 hPa 0,0 l/m 0,00 h 0,00 h 0 W/m 0,0 km/h (0 Bft) 96,52 %
19.01.2017 01:00 -5,5 C -6,2 C -7,8 C 91 % 1 lf 1036,9 hPa 0,0 l/m 0,00 h 0,00 h 0 W/m 0,6 km/h (0 Bft) 97,04 %
19.01.2017 02:00 -5,9 C -6,2 C -7,9 C 91 % 1 lf 1037,0 hPa 0,0 l/m 0,00 h 0,00 h 0 W/m 0,5 km/h (0 Bft) 94,76 %
19.01.2017 03:00 -6,1 C -7,0 C -8,3 C 92 % 0 lf 1037,0 hPa 0,0 l/m 0,00 h 0,00 h 0 W/m 0,2 km/h (0 Bft) 94,87 %
19.01.2017 04:00 -6,6 C -7,0 C -8,3 C 92 % 0 lf 1036,9 hPa 0,0 l/m 0,00 h 0,00 h 0 W/m 0,0 km/h (0 Bft) 95,47 %
19.01.2017 05:00 -6,8 C -7,7 C -8,7 C 93 % 0 lf 1036,8 hPa 0,0 l/m 0,00 h 0,00 h 0 W/m 0,0 km/h (0 Bft) 95,93 %
19.01.2017 06:00 -7,0 C -7,6 C -8,8 C 93 % 0 lf 1036,5 hPa 0,0 l/m 0,00 h 0,00 h 0 W/m 0,0 km/h (0 Bft) 96,18 %
19.01.2017 07:00 -6,8 C -6,3 C -7,0 C 93 % 1 lf 1036,5 hPa 0,0 l/m 0,00 h 0,00 h 0 W/m 0,0 km/h (0 Bft) 96,90 %
19.01.2017 08:00 -5,6 C -4,6 C -5,5 C 94 % 1 lf 1036,9 hPa 0,0 l/m 0,30 h 0,00 h 22 W/m 2,5 km/h (1 Bft) 95,46 %
19.01.2017 09:00 -4,7 C -4,4 C -5,8 C 95 % 1 lf 1037,3 hPa 0,0 l/m 1,00 h 0,00 h 88 W/m 4,5 km/h (1 Bft) 94,17 %
19.01.2017 10:00 -4,0 C -1,4 C -5,1 C 95 % 1 lf 1037,3 hPa 0,0 l/m 1,00 h 0,00 h 187 W/m 3,8 km/h (1 Bft) 97,24 %
19.01.2017 11:00 -1,4 C 10,6 C -3,7 C 93 % 1 lf 1037,0 hPa 0,0 l/m 1,00 h 0,00 h 267 W/m 5,7 km/h (1 Bft) 97,37 %
19.01.2017 12:00 0,6 C 8,1 C -1,5 C 79 % 0 lf 1036,8 hPa 0,0 l/m 1,00 h 0,00 h 299 W/m 6,4 km/h (2 Bft) 98,14 %
19.01.2017 13:00 2,0 C 9,4 C 0,1 C 73 % 0 lf 1036,1 hPa 0,0 l/m 1,00 h 0,00 h 278 W/m 6,0 km/h (2 Bft) 96,32 %
19.01.2017 14:00 3,2 C 13,0 C 1,4 C 68 % 0 lf 1035,6 hPa 0,0 l/m 1,00 h 0,00 h 202 W/m 7,6 km/h (2 Bft) 97,84 %
19.01.2017 15:00 3,4 C 5,4 C 1,0 C 69 % 0 lf 1035,5 hPa 0,0 l/m 0,60 h 0,00 h 94 W/m 7,2 km/h (2 Bft) 97,53 %
19.01.2017 16:00 2,6 C 1,7 C -2,3 C 71 % 0 lf 1035,5 hPa 0,0 l/m 0,03 h 0,00 h 24 W/m 5,1 km/h (1 Bft) 97,66 %
19.01.2017 17:00 0,9 C -1,1 C -4,6 C 76 % 0 lf 1035,5 hPa 0,0 l/m 0,00 h 0,00 h 7 W/m 4,1 km/h (1 Bft) 94,06 %
19.01.2017 18:00 -0,8 C -2,5 C -5,6 C 80 % 0 lf 1035,5 hPa 0,0 l/m 0,00 h 0,00 h 5 W/m 4,8 km/h (1 Bft) 94,98 %
19.01.2017 19:00 -1,9 C -2,6 C -5,9 C 84 % 0 lf 1035,7 hPa 0,0 l/m 0,00 h 0,00 h 5 W/m 7,6 km/h (2 Bft) 97,66 %
19.01.2017 20:00 -2,3 C -2,8 C -5,9 C 85 % 0 lf 1035,8 hPa 0,0 l/m 0,00 h 0,00 h 3 W/m 5,9 km/h (2 Bft) 96,48 %
19.01.2017 21:00 -2,8 C -3,7 C -6,4 C 85 % 0 lf 1035,6 hPa 0,0 l/m 0,00 h 0,00 h 4 W/m 3,0 km/h (1 Bft) 96,27 %
19.01.2017 22:00 -3,4 C -4,7 C -6,8 C 86 % 1 lf 1035,4 hPa 0,0 l/m 0,00 h 0,00 h 5 W/m 0,2 km/h (0 Bft) 93,52 %
19.01.2017 23:00 -4,1 C -4,9 C -7,2 C 86 % 1 lf 1035,5 hPa 0,0 l/m 0,00 h 0,00 h 0 W/m 0,1 km/h (0 Bft) 96,59 %
20.01.2017 00:00 -4,7 C -5,3 C -7,6 C 88 % 1 lf 1035,2 hPa 0,0 l/m 0,00 h 0,00 h 0 W/m 0,1 km/h (0 Bft) 95,16 %
20.01.2017 01:00 -5,1 C -5,9 C -7,8 C 89 % 1 lf 1034,8 hPa 0,0 l/m 0,00 h 0,00 h 0 W/m 0,0 km/h (0 Bft) 95,73 %
20.01.2017 02:00 -5,5 C -6,1 C -7,9 C 90 % 1 lf 1034,6 hPa 0,0 l/m 0,00 h 0,00 h 0 W/m 0,0 km/h (0 Bft) 97,39 %
20.01.2017 03:00 -5,8 C -6,7 C -8,3 C 91 % 1 lf 1034,5 hPa 0,0 l/m 0,00 h 0,00 h 0 W/m 0,0 km/h (0 Bft) 94,54 %
20.01.2017 04:00 -6,2 C -6,6 C -8,3 C 91 % 1 lf 1034,4 hPa 0,0 l/m 0,00 h 0,00 h 0 W/m 0,0 km/h (0 Bft) 95,34 %
20.01.2017 05:00 -6,4 C -6,9 C -8,3 C 91 % 1 lf 1034,5 hPa 0,0 l/m 0,00 h 0,00 h 0 W/m 0,0 km/h (0 Bft) 94,84 %
20.01.2017 06:00 -6,7 C -6,9 C -8,9 C 92 % 1 lf 1034,5 hPa 0,0 l/m 0,00 h 0,00 h 0 W/m 0,0 km/h (0 Bft) 97,35 %
20.01.2017 07:00 -6,8 C -7,7 C -8,9 C 92 % 1 lf 1034,4 hPa 0,0 l/m 0,00 h 0,00 h 0 W/m 0,0 km/h (0 Bft) 94,83 %
20.01.2017 08:00 -7,0 C -7,3 C -8,6 C 93 % 1 lf 1034,3 hPa 0,0 l/m 0,03 h 0,00 h 12 W/m 0,0 km/h (0 Bft) 97,85 %
20.01.2017 09:00 -6,7 C -5,8 C -7,6 C 93 % 1 lf 1034,4 hPa 0,0 l/m 0,80 h 0,00 h 84 W/m 0,0 km/h (0 Bft) 95,54 %
20.01.2017 10:00 -4,7 C -1,3 C -5,3 C 95 % 1 lf 1034,5 hPa 0,0 l/m 1,00 h 0,00 h 183 W/m 4,9 km/h (1 Bft) 93,02 %
20.01.2017 11:00 -1,4 C 6,9 C -3,1 C 92 % 3 lf 1034,4 hPa 0,0 l/m 1,00 h 0,00 h 299 W/m 5,7 km/h (1 Bft) 95,94 %
20.01.2017 12:00 1,3 C 5,8 C 0,4 C 76 % 0 lf 1033,8 hPa 0,0 l/m 1,00 h 0,00 h 273 W/m 7,1 km/h (2 Bft) 95,24 %
20.01.2017 13:00 2,2 C 7,4 C 1,3 C 72 % 0 lf 1033,4 hPa 0,0 l/m 1,00 h 0,00 h 245 W/m 5,9 km/h (2 Bft) 98,07 %
20.01.2017 14:00 2,5 C 7,2 C 1,3 C 73 % 0 lf 1032,9 hPa 0,0 l/m 0,90 h 0,00 h 164 W/m 6,1 km/h (2 Bft) 96,59 %
20.01.2017 15:00 2,2 C 4,2 C 0,6 C 76 % 0 lf 1032,6 hPa 0,0 l/m 0,73 h 0,00 h 97 W/m 5,3 km/h (1 Bft) 95,88 %
20.01.2017 16:00 1,7 C 1,4 C -1,4 C 78 % 0 lf 1032,5 hPa 0,0 l/m 0,40 h 0,00 h 31 W/m 3,6 km/h (1 Bft) 95,86 %
20.01.2017 17:00 0,4 C -1,3 C -3,5 C 79 % 0 lf 1032,4 hPa 0,0 l/m 0,00 h 0,00 h 11 W/m 3,5 km/h (1 Bft) 94,81 %
20.01.2017 18:00 -0,9 C -2,5 C -4,6 C 81 % 1 lf 1032,1 hPa 0,0 l/m 0,00 h 0,00 h 5 W/m 1,6 km/h (1 Bft) 95,80 %
20.01.2017 19:00 -1,9 C -3,0 C -5,1 C 83 % 1 lf 1032,0 hPa 0,0 l/m 0,00 h 0,00 h 3 W/m 1,0 km/h (0 Bft) 97,49 %
20.01.2017 20:00 -2,3 C -3,3 C -5,6 C 86 % 1 lf 1031,9 hPa 0,0 l/m 0,00 h 0,00 h 0 W/m 2,4 km/h (1 Bft) 96,66 %
20.01.2017 21:00 -2,8 C -3,8 C -6,1 C 87 % 1 lf 1031,8 hPa 0,0 l/m 0,00 h 0,00 h 5 W/m 2,0 km/h (1 Bft) 94,02 %
20.01.2017 22:00 -3,3 C -4,1 C -6,1 C 89 % 1 lf 1031,7 hPa 0,0 l/m 0,00 h 0,00 h 5 W/m 0,6 km/h (0 Bft) 95,29 %
20.01.2017 23:00 -3,7 C -4,4 C -6,1 C 89 % 1 lf 1031,5 hPa 0,0 l/m 0,00 h 0,00 h 5 W/m 2,5 km/h (1 Bft) 96,52 %
21.01.2017 00:00 -4,0 C -4,4 C -6,7 C 90 % 1 lf 1031,3 hPa 0,0 l/m 0,00 h 0,00 h 5 W/m 2,2 km/h (1 Bft) 95,15 %
21.01.2017 01:00 -4,3 C -4,9 C -6,7 C 90 % 1 lf 1030,8 hPa 0,0 l/m 0,00 h 0,00 h 4 W/m 1,0 km/h (0 Bft) 97,01 %
21.01.2017 02:00 -4,7 C -5,5 C -6,9 C 91 % 1 lf 1030,6 hPa 0,0 l/m 0,00 h 0,00 h 5 W/m 0,6 km/h (0 Bft) 97,08 %
21.01.2017 03:00 -4,9 C -5,3 C -7,2 C 91 % 1 lf 1030,4 hPa 0,0 l/m 0,00 h 0,00 h 4 W/m 0,0 km/h (0 Bft) 94,15 %
21.01.2017 04:00 -5,2 C -5,6 C -7,2 C 92 % 1 lf 1030,3 hPa 0,0 l/m 0,00 h 0,00 h 1 W/m 0,0 km/h (0 Bft) 96,08 %
21.01.2017 05:00 -5,3 C -5,8 C -7,4 C 92 % 1 lf 1030,0 hPa 0,0 l/m 0,00 h 0,00 h 3 W/m 0,0 km/h (0 Bft) 97,58 %
21.01.2017 06:00 -5,7 C -6,3 C -7,8 C 93 % 1 lf 1029,7 hPa 0,0 l/m 0,00 h 0,00 h 0 W/m 0,0 km/h (0 Bft) 95,32 %
21.01.2017 07:00 -6,1 C -6,7 C -7,9 C 93 % 1 lf 1029,6 hPa 0,0 l/m 0,00 h 0,00 h 0 W/m 0,0 km/h (0 Bft) 96,17 %
21.01.2017 08:00 -6,3 C -6,7 C -8,0 C 93 % 1 lf 1029,8 hPa 0,0 l/m 0,00 h 0,00 h 12 W/m 0,3 km/h (0 Bft) 95,67 %
21.01.2017 09:00 -6,1 C -5,3 C -6,9 C 93 % 1 lf 1029,8 hPa 0,0 l/m 0,90 h 0,00 h 74 W/m 0,3 km/h (0 Bft) 94,18 %
21.01.2017 10:00 -3,8 C 1,4 C -4,6 C 95 % 2 lf 1029,8 hPa 0,0 l/m 1,00 h 0,00 h 185 W/m 3,1 km/h (1 Bft) 97,15 %
21.01.2017 11:00 0,4 C 9,6 C -2,2 C 97 % 12 lf 1029,7 hPa 0,0 l/m 1,00 h 0,00 h 267 W/m 6,2 km/h (2 Bft) 96,51 %
21.01.2017 12:00 2,8 C 7,4 C 0,4 C 84 % 0 lf 1029,3 hPa 0,0 l/m 1,00 h 0,00 h 302 W/m 16,1 km/h (3 Bft) 97,57 %
21.01.2017 13:00 3,9 C 7,7 C 1,7 C 66 % 0 lf 1028,4 hPa 0,0 l/m 1,00 h 0,00 h 285 W/m 21,1 km/h (4 Bft) 94,53 %
21.01.2017 14:00 4,5 C 9,7 C 2,6 C 59 % 0 lf 1027,7 hPa 0,0 l/m 1,00 h 0,00 h 218 W/m 17,6 km/h (3 Bft) 92,39 %
21.01.2017 15:00 4,6 C 5,6 C 1,7 C 60 % 0 lf 1027,3 hPa 0,0 l/m 0,83 h 0,00 h 109 W/m 12,9 km/h (3 Bft) 95,23 %
21.01.2017 16:00 3,8 C 3,8 C 0,3 C 63 % 0 lf 1027,0 hPa 0,0 l/m 0,23 h 0,00 h 28 W/m 13,2 km/h (3 Bft) 95,96 %
21.01.2017 17:00 2,8 C 2,2 C -2,4 C 66 % 0 lf 1026,8 hPa 0,0 l/m 0,00 h 0,00 h 10 W/m 8,9 km/h (2 Bft) 97,08 %
21.01.2017 18:00 1,1 C -0,9 C -4,6 C 70 % 0 lf 1027,0 hPa 0,0 l/m 0,00 h 0,00 h 3 W/m 5,0 km/h (1 Bft) 94,31 %
21.01.2017 19:00 -0,5 C -0,6 C -4,9 C 75 % 0 lf 1027,1 hPa 0,0 l/m 0,00 h 0,00 h 5 W/m 8,3 km/h (2 Bft) 95,01 %
21.01.2017 20:00 -0,1 C 0,2 C -3,7 C 75 % 0 lf 1027,1 hPa 0,0 l/m 0,00 h 0,00 h 5 W/m 10,3 km/h (2 Bft) 96,16 %
21.01.2017 21:00 -0,3 C -0,4 C -4,2 C 74 % 0 lf 1026,9 hPa 0,0 l/m 0,00 h 0,00 h 5 W/m 10,4 km/h (2 Bft) 96,94 %
21.01.2017 22:00 -0,9 C -1,0 C -4,6 C 76 % 0 lf 1026,9 hPa 0,0 l/m 0,00 h 0,00 h 5 W/m 9,6 km/h (2 Bft) 94,75 %
21.01.2017 23:00 -1,5 C -1,7 C -5,6 C 77 % 0 lf 1027,1 hPa 0,0 l/m 0,00 h 0,00 h 5 W/m 8,5 km/h (2 Bft) 94,52 %
22.01.2017 00:00 -2,1 C -2,1 C -5,2 C 80 % 0 lf 1027,1 hPa 0,0 l/m 0,00 h 0,00 h 5 W/m 9,3 km/h (2 Bft) 94,21 %
22.01.2017 01:00 -2,5 C -2,6 C -5,7 C 81 % 0 lf 1026,8 hPa 0,0 l/m 0,00 h 0,00 h 5 W/m 8,7 km/h (2 Bft) 95,20 %
22.01.2017 02:00 -3,0 C -3,2 C -6,5 C 82 % 0 lf 1026,9 hPa 0,0 l/m 0,00 h 0,00 h 4 W/m 7,3 km/h (2 Bft) 96,12 %
22.01.2017 03:00 -3,4 C -3,3 C -6,0 C 84 % 0 lf 1026,7 hPa 0,0 l/m 0,00 h 0,00 h 0 W/m 9,2 km/h (2 Bft) 94,93 %
22.01.2017 04:00 -3,7 C -4,3 C -7,3 C 85 % 0 lf 1026,8 hPa 0,0 l/m 0,00 h 0,00 h 0 W/m 4,2 km/h (1 Bft) 95,31 %
22.01.2017 05:00 -4,9 C -6,3 C -8,5 C 84 % 1 lf 1026,7 hPa 0,0 l/m 0,00 h 0,00 h 5 W/m 0,1 km/h (0 Bft) 96,66 %
22.01.2017 06:00 -6,0 C -6,9 C -9,1 C 85 % 1 lf 1026,6 hPa 0,0 l/m 0,00 h 0,00 h 5 W/m 1,3 km/h (1 Bft) 96,51 %
22.01.2017 07:00 -6,4 C -6,1 C -9,1 C 88 % 1 lf 1026,2 hPa 0,0 l/m 0,00 h 0,00 h 5 W/m 5,2 km/h (1 Bft) 98,22 %
22.01.2017 08:00 -6,5 C -7,0 C -9,4 C 90 % 1 lf 1026,4 hPa 0,0 l/m 0,23 h 0,00 h 15 W/m 1,2 km/h (1 Bft) 92,14 %
22.01.2017 09:00 -6,7 C -5,3 C -8,0 C 90 % 1 lf 1026,5 hPa 0,0 l/m 1,00 h 0,00 h 94 W/m 3,0 km/h (1 Bft) 96,79 %
22.01.2017 10:00 -4,3 C -0,6 C -5,5 C 92 % 1 lf 1026,6 hPa 0,0 l/m 1,00 h 0,00 h 187 W/m 9,0 km/h (2 Bft) 97,18 %
22.01.2017 11:00 -1,1 C 5,4 C -2,9 C 83 % 0 lf 1026,8 hPa 0,0 l/m 1,00 h 0,00 h 272 W/m 10,8 km/h (2 Bft) 94,57 %
22.01.2017 12:00 0,6 C 5,1 C -1,5 C 75 % 0 lf 1026,1 hPa 0,0 l/m 1,00 h 0,00 h 311 W/m 9,3 km/h (2 Bft) 96,58 %
22.01.2017 13:00 1,4 C 6,5 C -0,4 C 71 % 0 lf 1025,5 hPa 0,0 l/m 1,00 h 0,00 h 292 W/m 8,5 km/h (2 Bft) 93,66 %
22.01.2017 14:00 2,3 C 9,1 C 0,5 C 67 % 0 lf 1025,1 hPa 0,0 l/m 1,00 h 0,00 h 217 W/m 7,3 km/h (2 Bft) 95,80 %
22.01.2017 15:00 2,5 C 3,5 C -0,6 C 66 % 0 lf 1025,1 hPa 0,0 l/m 0,87 h 0,00 h 109 W/m 3,4 km/h (1 Bft) 97,29 %
22.01.2017 16:00 1,3 C 0,2 C -3,9 C 69 % 0 lf 1025,1 hPa 0,0 l/m 0,00 h 0,00 h 29 W/m 0,5 km/h (0 Bft) 94,40 %
22.01.2017 17:00 -0,7 C -3,0 C -6,2 C 73 % 0 lf 1025,1 hPa 0,0 l/m 0,00 h 0,00 h 7 W/m 0,0 km/h (0 Bft) 94,81 %
22.01.2017 18:00 -2,4 C -4,2 C -7,1 C 77 % 0 lf 1025,4 hPa 0,0 l/m 0,00 h 0,00 h 0 W/m 0,0 km/h (0 Bft) 94,19 %
22.01.2017 19:00 -3,4 C -4,2 C -7,5 C 82 % 1 lf 1025,7 hPa 0,0 l/m 0,00 h 0,00 h 0 W/m 0,0 km/h (0 Bft) 97,86 %
22.01.2017 20:00 -4,0 C -5,3 C -8,0 C 86 % 1 lf 1025,5 hPa 0,0 l/m 0,00 h 0,00 h 0 W/m 0,0 km/h (0 Bft) 97,04 %
22.01.2017 21:00 -5,0 C -6,3 C -8,4 C 87 % 1 lf 1025,3 hPa 0,0 l/m 0,00 h 0,00 h 0 W/m 0,0 km/h (0 Bft) 94,54 %
22.01.2017 22:00 -5,6 C -6,1 C -8,8 C 88 % 1 lf 1025,4 hPa 0,0 l/m 0,00 h 0,00 h 0 W/m 1,9 km/h (1 Bft) 96,73 %
22.01.2017 23:00 -5,8 C -6,5 C -8,8 C 90 % 1 lf 1025,8 hPa 0,0 l/m 0,00 h 0,00 h 0 W/m 3,5 km/h (1 Bft) 93,92 %
Min-Datum _ 18.01.17 18.01.17 22.01.17 21.01.17 16.01.17 16.01.17 - - - - 16.01.17 22.01.17
_ Min-Zeit 05:24 05:24 06:32 14:28 00:50 00:00 - - - - 00:06 00:02
Minimum _ -7,1 C -8,3 C -9,4 C 58 % 0 lf 1022,1 hPa - - - - 0,0 km/h (0 Bft) 9,52 %
Max-Datum _ 21.01.17 19.01.17 21.01.17 16.01.17 16.01.17 18.01.17 16.01.17 16.01.17 16.01.17 20.01.17 21.01.17 16.01.17
_ Max-Zeit 15:00 14:18 14:14 00:00 18:58 11:24 00:00 12:58 00:00 11:56 13:06 01:02
Maximum _ 4,9 C 14,4 C 2,8 C 97 % 15 lf 1039,5 hPa 0,0 l/m 0,03 h 0,00 h 430 W/m 29,3 km/h
O-SO (5 Bft)
100,00 %
Durchschnitt _ -2,4 C -1,7 C -4,6 C 87 % 1 lf 1032,1 hPa #0,0 l/m #43:24 h #0 min. 84 W/m 5,2 km/h (1 Bft) 95,82 %
© 2017 W. Hausmann